KLAX/LAX METAR and TAF weather

Enter ICAO airport designator
Station Type Date Time Source
KLAX METAR 2019/06/19 01:51 UTC NOAA

KLAX 190151Z 26010KT 10SM OVC014 18/14 A2995 RMK AO2


Station Type Date Time Source
KLAX Decoded METAR 2019/06/19 01:51 UTC NOAA

LOS ANGELES INTERNTL AIRPORT, CA, United States (KLAX) 33-56N 118-23W 46M
Jun 18, 2019 - 09:51 PM EDT / 2019.06.19 0151 UTC
Wind: from the W (260 degrees) at 12 MPH (10 KT):0
Visibility: 10 mile(s):0
Sky conditions: overcast
Temperature: 64 F (18 C)
Dew Point: 57 F (14 C)
Relative Humidity: 77%
Pressure (altimeter): 29.95 in. Hg (1014 hPa)
ob: KLAX 190151Z 26010KT 10SM OVC014 18/14 A2995 RMK AO2
cycle: 2

Station Type Date Time Source
KLAX TAF 2019/06/18 21:42 UTC NOAA

TAF
AMD KLAX 182039Z 1821/1924 26009KT P6SM FEW018 OVC025
FM182200 26012KT P6SM SCT025
FM190300 26008KT P6SM OVC015
FM190700 VRB03KT P6SM OVC012
FM191800 26005KT P6SM OVC020
FM192000 26010KT P6SM BKN023

Example: see airport list